createdAt,value
2019-05-26T00:00:56.244Z,100983.38
2019-05-26T00:03:22.041Z,100980.68
2019-05-26T00:05:47.863Z,100981.70
2019-05-26T00:08:13.642Z,100971.28
2019-05-26T00:10:39.446Z,100969.86
2019-05-26T00:13:05.244Z,100967.48
2019-05-26T00:15:31.224Z,100974.10
2019-05-26T00:17:57.361Z,100960.58
2019-05-26T00:20:23.819Z,100969.36
2019-05-26T00:22:49.651Z,100962.50
2019-05-26T00:25:16.097Z,100954.94
2019-05-26T00:27:46.929Z,100946.31
2019-05-26T00:30:14.248Z,100952.98
2019-05-26T00:32:41.160Z,100951.70
2019-05-26T00:35:07.299Z,100945.01
2019-05-26T00:37:47.852Z,100932.34
2019-05-26T00:40:00.987Z,100926.95
2019-05-26T00:42:26.911Z,100930.12
2019-05-26T00:44:52.689Z,100923.06
2019-05-26T00:47:18.569Z,100923.06
2019-05-26T00:49:44.345Z,100916.64
2019-05-26T00:52:10.155Z,100911.05
2019-05-26T00:54:36.172Z,100909.58
2019-05-26T00:57:01.972Z,100910.27
2019-05-26T00:59:27.783Z,100912.27
2019-05-26T01:01:54.195Z,100903.48
2019-05-26T01:04:19.966Z,100904.42
2019-05-26T01:06:45.762Z,100893.38
2019-05-26T01:09:11.557Z,100891.22
2019-05-26T01:11:37.370Z,100885.56
2019-05-26T01:14:03.650Z,100887.12
2019-05-26T01:16:29.869Z,100882.55
2019-05-26T01:18:55.669Z,100873.22
2019-05-26T01:21:21.565Z,100873.22
2019-05-26T01:23:47.480Z,100877.53
2019-05-26T01:26:13.267Z,100879.59
2019-05-26T01:28:39.068Z,100881.05
2019-05-26T01:31:05.063Z,100876.19
2019-05-26T01:33:30.868Z,100872.80
2019-05-26T01:35:56.753Z,100874.96
2019-05-26T01:38:24.588Z,100872.70
2019-05-26T01:40:50.547Z,100860.50
2019-05-26T01:43:16.402Z,100855.16
2019-05-26T01:45:42.135Z,100859.22
2019-05-26T01:48:08.033Z,100862.64
2019-05-26T01:50:34.123Z,100854.14
2019-05-26T01:52:59.917Z,100851.12
2019-05-26T01:55:25.711Z,100845.43
2019-05-26T01:57:51.507Z,100843.29
2019-05-26T02:00:17.502Z,100841.17
2019-05-26T02:02:43.314Z,100831.73
2019-05-26T02:05:09.198Z,100827.89
2019-05-26T02:07:34.998Z,100831.17
2019-05-26T02:10:00.783Z,100828.91
2019-05-26T02:12:26.583Z,100823.73
2019-05-26T02:14:52.371Z,100814.40
2019-05-26T02:17:18.153Z,100807.71
2019-05-26T02:19:43.954Z,100821.97
2019-05-26T02:22:09.745Z,100817.27
2019-05-26T02:24:35.544Z,100827.95
2019-05-26T02:27:01.334Z,100831.34
2019-05-26T02:29:27.135Z,100831.94
2019-05-26T02:31:52.926Z,100830.70
2019-05-26T02:34:18.728Z,100828.01
2019-05-26T02:36:44.517Z,100829.23
2019-05-26T02:39:10.328Z,100828.97
2019-05-26T02:41:36.113Z,100828.27
2019-05-26T02:44:01.923Z,100825.83
2019-05-26T02:46:27.733Z,100825.45
2019-05-26T02:48:53.529Z,100816.08
2019-05-26T02:51:19.318Z,100807.33
2019-05-26T02:53:45.726Z,100790.13
2019-05-26T02:56:11.732Z,100783.05
2019-05-26T02:58:37.541Z,100776.20
2019-05-26T03:01:03.322Z,100780.86
2019-05-26T03:03:29.221Z,100778.57
2019-05-26T03:05:55.221Z,100780.56
2019-05-26T03:08:21.614Z,100784.73
2019-05-26T03:10:49.029Z,100772.47
2019-05-26T03:13:15.522Z,100767.98
2019-05-26T03:15:43.154Z,100772.15
2019-05-26T03:18:09.126Z,100769.77
2019-05-26T03:20:37.327Z,100763.09
2019-05-26T03:23:03.133Z,100766.81
2019-05-26T03:25:29.735Z,100761.89
2019-05-26T03:27:55.527Z,100762.83
2019-05-26T03:30:21.331Z,100754.47
2019-05-26T03:32:47.149Z,100743.24
2019-05-26T03:35:12.997Z,100741.66
2019-05-26T03:37:38.808Z,100748.31
2019-05-26T03:40:06.508Z,100746.47
2019-05-26T03:42:32.303Z,100750.16
2019-05-26T03:44:58.206Z,100744.97
2019-05-26T03:47:23.989Z,100737.90
2019-05-26T03:49:49.795Z,100734.38
2019-05-26T03:52:15.580Z,100734.30
2019-05-26T03:54:41.384Z,100732.23
2019-05-26T03:57:07.168Z,100726.14
2019-05-26T03:59:32.970Z,100725.66
2019-05-26T04:01:58.759Z,100713.52
2019-05-26T04:04:24.565Z,100717.61
2019-05-26T04:06:50.350Z,100722.94
2019-05-26T04:09:16.246Z,100722.39
2019-05-26T04:11:42.030Z,100708.76
2019-05-26T04:14:07.832Z,100704.90
2019-05-26T04:16:33.628Z,100715.20
2019-05-26T04:18:59.416Z,100714.24
2019-05-26T04:21:25.219Z,100714.63
2019-05-26T04:23:51.017Z,100710.04
2019-05-26T04:26:16.827Z,100711.55
2019-05-26T04:28:42.721Z,100707.17
2019-05-26T04:31:08.512Z,100705.55
2019-05-26T04:33:34.292Z,100699.58
2019-05-26T04:36:00.110Z,100705.44
2019-05-26T04:38:25.885Z,100696.98
2019-05-26T04:40:51.699Z,100686.12
2019-05-26T04:43:17.473Z,100691.77
2019-05-26T04:45:43.275Z,100687.53
2019-05-26T04:48:09.067Z,100686.40
2019-05-26T04:50:34.866Z,100685.42
2019-05-26T04:53:06.816Z,100675.28
2019-05-26T04:55:28.334Z,100680.38
2019-05-26T04:57:54.140Z,100677.69
2019-05-26T05:00:20.026Z,100676.56
2019-05-26T05:02:45.836Z,100669.71
2019-05-26T05:05:12.827Z,100664.63
2019-05-26T05:07:38.638Z,100665.59
2019-05-26T05:10:04.613Z,100664.34
2019-05-26T05:12:30.414Z,100661.55
2019-05-26T05:14:56.209Z,100664.36
2019-05-26T05:17:22.125Z,100652.44
2019-05-26T05:19:47.922Z,100651.59
2019-05-26T05:22:13.739Z,100651.59
2019-05-26T05:24:39.520Z,100651.91
2019-05-26T05:27:05.410Z,100639.43
2019-05-26T05:29:31.195Z,100645.25
2019-05-26T05:31:56.995Z,100644.75
2019-05-26T05:34:22.784Z,100635.16
2019-05-26T05:36:48.575Z,100633.41
2019-05-26T05:39:14.367Z,100630.28
2019-05-26T05:41:40.177Z,100628.52
2019-05-26T05:44:05.963Z,100620.59
2019-05-26T05:46:31.749Z,100615.10
2019-05-26T05:48:57.551Z,100609.70
2019-05-26T05:51:23.344Z,100618.22
2019-05-26T05:53:49.140Z,100609.28
2019-05-26T05:56:14.924Z,100596.48
2019-05-26T05:58:40.734Z,100595.36
2019-05-26T06:01:06.516Z,100591.48
2019-05-26T06:03:32.314Z,100597.59
2019-05-26T06:05:58.099Z,100601.77
2019-05-26T06:08:23.906Z,100597.88
2019-05-26T06:10:49.693Z,100597.45
2019-05-26T06:13:15.498Z,100588.38
2019-05-26T06:15:41.288Z,100591.62
2019-05-26T06:18:07.100Z,100582.84
2019-05-26T06:20:32.888Z,100583.33
2019-05-26T06:22:58.704Z,100577.09
2019-05-26T06:25:24.489Z,100575.02
2019-05-26T06:27:50.293Z,100572.47
2019-05-26T06:30:16.978Z,100571.70
2019-05-26T06:32:42.795Z,100570.97
2019-05-26T06:35:08.675Z,100567.19
2019-05-26T06:37:34.491Z,100563.63
2019-05-26T06:40:00.273Z,100564.72
2019-05-26T06:42:26.060Z,100550.90
2019-05-26T06:44:53.960Z,100553.83
2019-05-26T06:47:19.540Z,100554.59
2019-05-26T06:49:45.332Z,100565.08
2019-05-26T06:52:11.127Z,100553.91
2019-05-26T06:54:36.925Z,100544.70
2019-05-26T06:57:02.714Z,100546.36
2019-05-26T06:59:28.527Z,100539.54
2019-05-26T07:01:54.320Z,100545.67
2019-05-26T07:04:20.127Z,100544.37
2019-05-26T07:06:45.913Z,100553.55
2019-05-26T07:09:11.703Z,100542.80
2019-05-26T07:11:53.952Z,100532.66
2019-05-26T07:14:05.200Z,100533.66
2019-05-26T07:16:38.248Z,100532.19
2019-05-26T07:18:58.966Z,100519.62
2019-05-26T07:21:24.754Z,100514.34
2019-05-26T07:23:50.560Z,100519.38
2019-05-26T07:26:16.355Z,100520.55
2019-05-26T07:28:42.144Z,100521.33
2019-05-26T07:31:07.938Z,100518.55
2019-05-26T07:33:33.729Z,100510.19
2019-05-26T07:35:59.531Z,100523.47
2019-05-26T07:38:25.320Z,100509.19
2019-05-26T07:40:51.110Z,100510.02
2019-05-26T07:43:16.895Z,100504.16
2019-05-26T07:45:42.768Z,100500.11
2019-05-26T07:48:08.554Z,100494.17
2019-05-26T07:50:34.353Z,100492.36
2019-05-26T07:53:00.158Z,100482.28
2019-05-26T07:55:25.964Z,100480.86
2019-05-26T07:57:51.753Z,100476.06
2019-05-26T08:00:17.751Z,100470.48
2019-05-26T08:02:43.537Z,100468.04
2019-05-26T08:05:09.436Z,100467.70
2019-05-26T08:07:35.335Z,100466.86
2019-05-26T08:10:01.200Z,100465.10
2019-05-26T08:12:30.386Z,100461.75
2019-05-26T08:14:54.795Z,100461.95
2019-05-26T08:17:20.604Z,100459.77
2019-05-26T08:19:46.393Z,100451.02
2019-05-26T08:22:12.204Z,100453.41
2019-05-26T08:24:37.992Z,100446.02
2019-05-26T08:27:03.790Z,100449.25
2019-05-26T08:29:29.582Z,100447.63
2019-05-26T08:31:55.382Z,100450.44
2019-05-26T08:34:21.169Z,100457.37
2019-05-26T08:36:46.973Z,100442.27
2019-05-26T08:39:12.758Z,100448.61
2019-05-26T08:41:38.615Z,100446.23
2019-05-26T08:44:04.501Z,100446.35
2019-05-26T08:46:30.405Z,100450.06
2019-05-26T08:48:56.191Z,100445.00
2019-05-26T08:51:21.988Z,100436.06
2019-05-26T08:53:47.780Z,100443.71
2019-05-26T08:56:13.594Z,100434.80
2019-05-26T08:58:39.392Z,100436.33
2019-05-26T09:01:05.219Z,100429.09
2019-05-26T09:03:31.075Z,100440.55
2019-05-26T09:05:56.867Z,100434.30
2019-05-26T09:08:22.675Z,100430.73
2019-05-26T09:10:48.468Z,100427.73
2019-05-26T09:13:14.270Z,100438.50
2019-05-26T09:15:41.353Z,100426.83
2019-05-26T09:18:07.165Z,100434.95
2019-05-26T09:20:32.939Z,100431.33
2019-05-26T09:22:58.747Z,100431.86
2019-05-26T09:25:24.534Z,100441.90
2019-05-26T09:27:50.349Z,100441.96
2019-05-26T09:30:16.441Z,100434.52
2019-05-26T09:32:42.484Z,100431.94
2019-05-26T09:35:08.549Z,100431.19
2019-05-26T09:37:34.341Z,100437.59
2019-05-26T09:40:00.139Z,100434.52
2019-05-26T09:42:26.177Z,100430.06
2019-05-26T09:44:51.972Z,100437.31
2019-05-26T09:47:17.816Z,100431.80
2019-05-26T09:49:44.025Z,100432.32
2019-05-26T09:52:10.142Z,100431.73
2019-05-26T09:54:36.092Z,100433.09
2019-05-26T09:57:01.888Z,100433.77
2019-05-26T09:59:28.354Z,100438.66
2019-05-26T10:01:54.239Z,100432.45
2019-05-26T10:04:20.051Z,100435.73
2019-05-26T10:06:45.847Z,100426.72
2019-05-26T10:09:11.648Z,100429.38
2019-05-26T10:11:37.864Z,100424.30
2019-05-26T10:14:03.653Z,100420.80
2019-05-26T10:16:29.437Z,100421.70
2019-05-26T10:18:55.614Z,100421.21
2019-05-26T10:21:21.395Z,100422.67
2019-05-26T10:23:47.317Z,100424.48
2019-05-26T10:26:13.122Z,100424.92
2019-05-26T10:28:38.932Z,100413.06
2019-05-26T10:31:04.735Z,100418.70
2019-05-26T10:33:30.526Z,100417.34
2019-05-26T10:35:56.335Z,100414.33
2019-05-26T10:38:22.417Z,100412.56
2019-05-26T10:40:48.284Z,100407.69
2019-05-26T10:43:14.050Z,100413.81
2019-05-26T10:45:40.009Z,100408.68
2019-05-26T10:48:08.009Z,100412.55
2019-05-26T10:50:35.113Z,100396.84
2019-05-26T10:53:01.388Z,100409.06
2019-05-26T10:55:33.235Z,100412.95
2019-05-26T10:57:59.234Z,100411.29
2019-05-26T11:00:25.285Z,100408.77
2019-05-26T11:02:51.070Z,100410.09
2019-05-26T11:05:16.893Z,100409.17
2019-05-26T11:07:42.682Z,100399.55
2019-05-26T11:10:08.886Z,100396.05
2019-05-26T11:12:34.747Z,100407.40
2019-05-26T11:15:00.646Z,100400.95
2019-05-26T11:17:26.465Z,100390.93
2019-05-26T11:19:52.227Z,100395.66
2019-05-26T11:22:18.110Z,100398.37
2019-05-26T11:24:44.025Z,100396.94
2019-05-26T11:27:12.671Z,100398.67
2019-05-26T11:29:37.494Z,100397.61
2019-05-26T11:32:03.402Z,100395.84
2019-05-26T11:34:29.186Z,100389.30
2019-05-26T11:36:56.215Z,100397.41
2019-05-26T11:39:22.082Z,100397.28
2019-05-26T11:41:54.559Z,100398.00
2019-05-26T11:44:18.261Z,100393.00
2019-05-26T11:46:43.349Z,100395.93
2019-05-26T11:49:09.139Z,100384.41
2019-05-26T11:51:34.953Z,100393.37
2019-05-26T11:54:00.748Z,100385.69
2019-05-26T11:56:27.079Z,100379.06
2019-05-26T11:58:52.922Z,100379.87
2019-05-26T12:01:22.670Z,100379.41
2019-05-26T12:03:46.904Z,100383.34
2019-05-26T12:06:13.304Z,100382.33
2019-05-26T12:08:42.122Z,100387.98
2019-05-26T12:11:08.444Z,100382.75
2019-05-26T12:13:43.457Z,100374.64
2019-05-26T12:16:12.717Z,100375.87
2019-05-26T12:18:38.520Z,100380.55
2019-05-26T12:21:04.371Z,100383.19
2019-05-26T12:23:30.181Z,100376.39
2019-05-26T12:25:55.974Z,100375.79
2019-05-26T12:28:21.776Z,100370.44
2019-05-26T12:30:47.559Z,100372.81
2019-05-26T12:33:13.596Z,100375.99
2019-05-26T12:35:45.454Z,100370.81
2019-05-26T12:38:11.250Z,100363.81
2019-05-26T12:40:37.036Z,100365.67
2019-05-26T12:43:03.053Z,100372.61
2019-05-26T12:45:28.842Z,100370.66
2019-05-26T12:47:54.701Z,100374.19
2019-05-26T12:50:20.488Z,100366.95
2019-05-26T12:52:46.285Z,100371.50
2019-05-26T12:55:12.074Z,100368.13
2019-05-26T12:57:37.991Z,100369.63
2019-05-26T13:00:08.362Z,100373.84
2019-05-26T13:02:34.159Z,100355.64
2019-05-26T13:04:59.949Z,100361.72
2019-05-26T13:07:28.542Z,100360.66
2019-05-26T13:09:54.349Z,100363.72
2019-05-26T13:12:20.134Z,100362.02
2019-05-26T13:14:45.927Z,100364.86
2019-05-26T13:17:11.709Z,100362.83
2019-05-26T13:19:37.506Z,100356.70
2019-05-26T13:22:03.501Z,100356.91
2019-05-26T13:24:29.308Z,100353.84
2019-05-26T13:26:55.093Z,100357.94
2019-05-26T13:29:20.891Z,100354.33
2019-05-26T13:31:46.722Z,100354.38
2019-05-26T13:34:12.513Z,100363.54
2019-05-26T13:36:38.287Z,100347.22
2019-05-26T13:39:06.184Z,100351.01
2019-05-26T13:41:31.975Z,100356.78
2019-05-26T13:43:57.769Z,100355.72
2019-05-26T13:46:23.564Z,100355.29
2019-05-26T13:48:49.357Z,100355.48
2019-05-26T13:51:15.143Z,100356.38
2019-05-26T13:53:40.944Z,100347.14
2019-05-26T13:56:06.731Z,100348.76
2019-05-26T13:58:32.535Z,100351.23
2019-05-26T14:00:58.309Z,100347.45
2019-05-26T14:03:24.470Z,100339.95
2019-05-26T14:05:50.671Z,100346.02
2019-05-26T14:08:16.665Z,100345.64
2019-05-26T14:10:42.448Z,100336.93
2019-05-26T14:13:08.333Z,100333.29
2019-05-26T14:15:38.571Z,100341.89
2019-05-26T14:18:02.850Z,100337.81
2019-05-26T14:20:34.313Z,100335.53
2019-05-26T14:23:00.232Z,100333.97
2019-05-26T14:25:26.039Z,100339.45
2019-05-26T14:27:51.838Z,100334.63
2019-05-26T14:30:17.758Z,100332.08
2019-05-26T14:32:43.562Z,100329.91
2019-05-26T14:35:09.372Z,100334.67
2019-05-26T14:37:35.232Z,100330.39
2019-05-26T14:40:01.149Z,100329.19
2019-05-26T14:42:26.938Z,100321.61
2019-05-26T14:44:52.742Z,100321.12
2019-05-26T14:47:18.548Z,100325.44
2019-05-26T14:49:44.338Z,100327.97
2019-05-26T14:52:10.138Z,100327.51
2019-05-26T14:54:35.945Z,100326.11
2019-05-26T14:57:01.747Z,100323.33
2019-05-26T14:59:27.539Z,100308.86
2019-05-26T15:01:53.340Z,100311.23
2019-05-26T15:04:19.129Z,100311.96
2019-05-26T15:06:44.925Z,100305.23
2019-05-26T15:09:24.417Z,100300.05
2019-05-26T15:11:38.421Z,100299.35
2019-05-26T15:14:04.215Z,100298.39
2019-05-26T15:16:30.015Z,100289.75
2019-05-26T15:18:55.809Z,100289.86
2019-05-26T15:21:21.601Z,100282.98
2019-05-26T15:23:47.411Z,100287.13
2019-05-26T15:26:13.205Z,100284.72
2019-05-26T15:28:39.002Z,100287.91
2019-05-26T15:31:04.794Z,100275.98
2019-05-26T15:33:30.591Z,100270.45
2019-05-26T15:35:56.387Z,100261.28
2019-05-26T15:38:22.215Z,100254.02
2019-05-26T15:40:48.386Z,100249.27
2019-05-26T15:43:14.182Z,100255.00
2019-05-26T15:45:39.972Z,100243.48
2019-05-26T15:48:05.765Z,100236.89
2019-05-26T15:50:31.662Z,100236.91
2019-05-26T15:52:57.468Z,100226.39
2019-05-26T15:55:23.354Z,100220.42
2019-05-26T15:57:49.157Z,100225.30
2019-05-26T16:00:15.242Z,100222.29
2019-05-26T16:02:41.055Z,100218.16
2019-05-26T16:05:07.639Z,100217.30
2019-05-26T16:07:33.674Z,100218.83
2019-05-26T16:09:59.462Z,100215.95
2019-05-26T16:12:25.250Z,100213.66
2019-05-26T16:14:51.059Z,100210.52
2019-05-26T16:17:16.850Z,100210.63
2019-05-26T16:19:42.658Z,100199.41
2019-05-26T16:22:08.464Z,100199.14
2019-05-26T16:24:34.276Z,100191.23
2019-05-26T16:27:05.054Z,100191.52
2019-05-26T16:29:27.785Z,100186.36
2019-05-26T16:31:53.585Z,100191.23
2019-05-26T16:34:19.390Z,100184.02
2019-05-26T16:36:45.221Z,100186.72
2019-05-26T16:39:11.117Z,100198.11
2019-05-26T16:41:36.962Z,100196.17
2019-05-26T16:44:02.863Z,100190.93
2019-05-26T16:46:28.653Z,100204.17
2019-05-26T16:48:55.033Z,100202.23
2019-05-26T16:51:20.955Z,100189.11
2019-05-26T16:53:46.751Z,100188.59
2019-05-26T16:56:12.544Z,100191.25
2019-05-26T16:58:38.417Z,100208.80
2019-05-26T17:01:04.220Z,100204.27
2019-05-26T17:03:30.000Z,100213.92
2019-05-26T17:06:07.553Z,100202.94
2019-05-26T17:08:23.486Z,100210.75
2019-05-26T17:10:49.284Z,100208.92
2019-05-26T17:13:15.069Z,100211.64
2019-05-26T17:15:40.860Z,100210.08
2019-05-26T17:18:06.652Z,100204.31
2019-05-26T17:20:32.457Z,100201.92
2019-05-26T17:22:58.258Z,100200.78
2019-05-26T17:25:24.054Z,100203.69
2019-05-26T17:27:49.845Z,100199.80
2019-05-26T17:30:16.453Z,100196.78
2019-05-26T17:32:42.235Z,100195.34
2019-05-26T17:35:08.135Z,100185.86
2019-05-26T17:37:34.027Z,100192.15
2019-05-26T17:39:59.818Z,100189.47
2019-05-26T17:42:25.605Z,100184.14
2019-05-26T17:44:51.538Z,100193.21
2019-05-26T17:47:29.309Z,100187.96
2019-05-26T17:49:45.038Z,100185.43
2019-05-26T17:52:10.844Z,100184.95
2019-05-26T17:54:36.636Z,100181.34
2019-05-26T17:57:02.738Z,100184.95
2019-05-26T17:59:28.527Z,100171.61
2019-05-26T18:01:54.421Z,100172.61
2019-05-26T18:04:20.216Z,100166.98
2019-05-26T18:06:46.018Z,100168.34
2019-05-26T18:09:11.802Z,100165.91
2019-05-26T18:11:37.610Z,100170.88
2019-05-26T18:14:03.406Z,100164.55
2019-05-26T18:16:29.312Z,100171.35
2019-05-26T18:18:55.094Z,100168.81
2019-05-26T18:21:20.902Z,100164.00
2019-05-26T18:23:46.718Z,100159.89
2019-05-26T18:26:12.509Z,100158.82
2019-05-26T18:28:38.322Z,100153.31
2019-05-26T18:31:04.111Z,100141.11
2019-05-26T18:33:29.914Z,100149.23
2019-05-26T18:35:55.695Z,100146.29
2019-05-26T18:38:21.526Z,100142.14
2019-05-26T18:40:47.318Z,100137.94
2019-05-26T18:43:13.124Z,100134.31
2019-05-26T18:45:38.904Z,100138.72
2019-05-26T18:48:04.702Z,100131.00
2019-05-26T18:50:30.503Z,100131.63
2019-05-26T18:52:56.303Z,100126.89
2019-05-26T18:55:22.114Z,100127.52
2019-05-26T18:57:47.895Z,100125.83
2019-05-26T19:00:14.000Z,100120.09
2019-05-26T19:02:39.798Z,100123.59
2019-05-26T19:05:05.890Z,100125.53
2019-05-26T19:07:31.689Z,100120.18
2019-05-26T19:09:57.517Z,100120.54
2019-05-26T19:12:23.314Z,100118.15
2019-05-26T19:14:49.103Z,100119.22
2019-05-26T19:17:14.941Z,100117.56
2019-05-26T19:19:40.725Z,100113.97
2019-05-26T19:22:06.530Z,100121.09
2019-05-26T19:24:32.338Z,100119.41
2019-05-26T19:26:58.382Z,100105.45
2019-05-26T19:29:24.674Z,100119.73
2019-05-26T19:31:50.573Z,100106.39
2019-05-26T19:34:16.369Z,100108.34
2019-05-26T19:36:42.163Z,100106.29
2019-05-26T19:39:08.265Z,100106.10
2019-05-26T19:41:34.141Z,100106.59
2019-05-26T19:43:59.943Z,100103.16
2019-05-26T19:46:25.739Z,100115.63
2019-05-26T19:48:51.538Z,100106.36
2019-05-26T19:51:17.323Z,100104.74
2019-05-26T19:53:43.126Z,100099.59
2019-05-26T19:56:08.917Z,100099.27
2019-05-26T19:58:34.729Z,100093.58
2019-05-26T20:01:00.590Z,100097.66
2019-05-26T20:03:26.374Z,100091.73
2019-05-26T20:05:52.172Z,100089.02
2019-05-26T20:08:18.059Z,100090.12
2019-05-26T20:10:43.975Z,100086.27
2019-05-26T20:13:09.766Z,100084.84
2019-05-26T20:15:35.769Z,100087.03
2019-05-26T20:18:01.718Z,100089.79
2019-05-26T20:20:27.663Z,100084.02
2019-05-26T20:22:53.471Z,100088.47
2019-05-26T20:25:19.283Z,100084.02
2019-05-26T20:27:45.080Z,100086.74
2019-05-26T20:30:11.082Z,100072.98
2019-05-26T20:32:36.870Z,100089.13
2019-05-26T20:35:04.876Z,100084.92
2019-05-26T20:37:30.676Z,100090.06
2019-05-26T20:39:56.473Z,100087.93
2019-05-26T20:42:22.288Z,100092.08
2019-05-26T20:44:48.084Z,100089.77
2019-05-26T20:47:13.872Z,100087.27
2019-05-26T20:49:45.263Z,100081.14
2019-05-26T20:52:07.379Z,100084.16
2019-05-26T20:54:33.162Z,100081.25
2019-05-26T20:56:59.040Z,100085.22
2019-05-26T20:59:24.874Z,100082.39
2019-05-26T21:01:50.713Z,100088.82
2019-05-26T21:04:16.558Z,100086.36
2019-05-26T21:06:42.357Z,100087.94
2019-05-26T21:09:11.085Z,100082.50
2019-05-26T21:11:35.837Z,100087.65
2019-05-26T21:14:01.624Z,100080.41
2019-05-26T21:16:27.419Z,100079.20
2019-05-26T21:18:53.205Z,100077.26
2019-05-26T21:21:18.997Z,100084.27
2019-05-26T21:23:44.836Z,100083.53
2019-05-26T21:26:10.626Z,100091.69
2019-05-26T21:28:36.536Z,100090.07
2019-05-26T21:31:02.341Z,100079.42
2019-05-26T21:33:28.224Z,100083.20
2019-05-26T21:35:54.010Z,100082.14
2019-05-26T21:38:19.823Z,100079.12
2019-05-26T21:40:45.768Z,100083.58
2019-05-26T21:43:11.552Z,100077.22
2019-05-26T21:45:37.334Z,100075.38
2019-05-26T21:48:03.378Z,100070.76
2019-05-26T21:50:29.218Z,100070.42
2019-05-26T21:52:55.024Z,100069.47
2019-05-26T21:55:20.810Z,100069.66
2019-05-26T21:57:46.608Z,100071.78
2019-05-26T22:00:14.999Z,100080.23
2019-05-26T22:02:40.894Z,100063.89
2019-05-26T22:05:06.777Z,100070.09
2019-05-26T22:07:32.573Z,100073.98
2019-05-26T22:09:58.361Z,100067.37
2019-05-26T22:12:24.161Z,100068.99
2019-05-26T22:14:49.945Z,100067.09
2019-05-26T22:17:15.746Z,100061.36
2019-05-26T22:19:41.632Z,100068.63
2019-05-26T22:22:07.443Z,100059.85
2019-05-26T22:24:33.233Z,100055.92
2019-05-26T22:26:59.037Z,100052.11
2019-05-26T22:29:24.820Z,100053.31
2019-05-26T22:31:50.643Z,100060.98
2019-05-26T22:34:16.426Z,100047.95
2019-05-26T22:36:42.213Z,100055.27
2019-05-26T22:39:08.018Z,100049.42
2019-05-26T22:41:33.803Z,100045.39
2019-05-26T22:43:59.602Z,100044.09
2019-05-26T22:46:25.386Z,100048.22
2019-05-26T22:48:51.176Z,100042.48
2019-05-26T22:51:16.965Z,100047.59
2019-05-26T22:53:42.764Z,100039.04
2019-05-26T22:56:08.556Z,100042.55
2019-05-26T22:58:34.366Z,100043.66
2019-05-26T23:01:00.151Z,100039.55
2019-05-26T23:03:26.460Z,100042.27
2019-05-26T23:05:52.244Z,100041.89
2019-05-26T23:08:18.057Z,100038.66
2019-05-26T23:10:43.854Z,100050.70
2019-05-26T23:13:09.651Z,100040.80
2019-05-26T23:15:35.437Z,100035.55
2019-05-26T23:18:01.247Z,100037.83
2019-05-26T23:20:27.035Z,100034.81
2019-05-26T23:22:52.841Z,100030.22
2019-05-26T23:25:18.642Z,100027.91
2019-05-26T23:27:44.545Z,100028.38
2019-05-26T23:30:10.437Z,100020.82
2019-05-26T23:32:36.229Z,100019.47
2019-05-26T23:35:05.131Z,100022.61
2019-05-26T23:37:30.926Z,100013.96
2019-05-26T23:39:56.727Z,100011.80
2019-05-26T23:42:22.508Z,100010.58
2019-05-26T23:44:48.300Z,100006.25
2019-05-26T23:47:14.097Z,100003.94
2019-05-26T23:49:39.895Z,100003.35
2019-05-26T23:52:05.680Z,100011.98
2019-05-26T23:54:31.484Z,100008.38
2019-05-26T23:56:57.271Z,100004.97
2019-05-26T23:59:23.080Z,100007.23
